Time,TemperatureF,DewpointF,PressureIn,WindDirection,WindDirectionDegrees,WindSpeedMPH,WindSpeedGustMPH,Humidity,HourlyPrecipIn,Conditions,Clouds,dailyrainin,SolarRadiationWatts/m^2,SoftwareType,DateUTC
2013-08-08 00:01:00,58.4,54.2,29.96,NNW,328,0.0,0.0,86,0.00,,,0.00,0,WeatherCatV1.14B232,2013-08-08 07:01:00,
2013-08-08 00:06:00,58.3,54.4,29.96,NNW,328,0.0,0.0,87,0.00,,,0.00,0,WeatherCatV1.14B232,2013-08-08 07:06:00,
2013-08-08 00:11:00,58.3,54.4,29.96,NNW,328,0.0,0.0,87,0.00,,,0.00,0,WeatherCatV1.14B232,2013-08-08 07:11:00,
2013-08-08 00:16:00,58.3,54.4,29.96,NNW,328,0.0,0.0,87,0.00,,,0.00,0,WeatherCatV1.14B232,2013-08-08 07:16:00,
2013-08-08 00:21:00,58.1,54.2,29.96,NNW,328,0.0,0.0,87,0.00,,,0.00,0,WeatherCatV1.14B232,2013-08-08 07:21:00,
2013-08-08 00:26:00,58.1,54.2,29.96,NNW,328,0.0,0.0,87,0.00,,,0.00,0,WeatherCatV1.14B232,2013-08-08 07:26:00,
2013-08-08 00:31:00,58.0,54.2,29.96,NNW,328,0.0,0.0,87,0.00,,,0.00,0,WeatherCatV1.14B232,2013-08-08 07:31:00,
2013-08-08 00:36:00,58.0,54.2,29.96,NNW,328,0.0,0.0,87,0.00,,,0.00,0,WeatherCatV1.14B232,2013-08-08 07:36:00,
2013-08-08 00:41:00,58.0,54.2,29.96,NNW,328,0.0,0.0,87,0.00,,,0.00,0,WeatherCatV1.14B232,2013-08-08 07:41:00,
2013-08-08 00:46:00,58.0,54.5,29.96,NNW,344,0.0,5.0,88,0.00,,,0.00,0,WeatherCatV1.14B232,2013-08-08 07:46:00,
2013-08-08 00:51:00,58.1,54.6,29.96,NNW,344,0.0,0.0,88,0.00,,,0.00,0,WeatherCatV1.14B232,2013-08-08 07:51:00,
2013-08-08 00:52:00,58.1,54.6,29.96,NNW,344,0.0,0.0,88,0.00,,,0.00,0,WeatherCatV1.14B232,2013-08-08 07:52:00,
2013-08-08 00:57:00,58.3,54.8,29.96,NNW,345,0.0,1.0,88,0.00,,,0.00,0,WeatherCatV1.14B232,2013-08-08 07:57:00,
2013-08-08 01:02:00,58.3,54.8,29.96,NNW,338,0.0,4.0,88,0.00,,,0.00,0,WeatherCatV1.14B232,2013-08-08 08:02:00,
2013-08-08 01:07:00,58.7,55.2,29.96,NW,321,0.0,9.0,88,0.00,,,0.00,0,WeatherCatV1.14B232,2013-08-08 08:07:00,
2013-08-08 01:12:00,59.2,55.6,29.96,NNW,332,1.0,3.0,88,0.00,,,0.00,0,WeatherCatV1.14B232,2013-08-08 08:12:00,
2013-08-08 01:17:00,59.6,55.7,29.96,NNW,328,1.0,5.0,87,0.00,,,0.00,0,WeatherCatV1.14B232,2013-08-08 08:17:00,
2013-08-08 01:22:00,60.1,55.9,29.96,NNW,337,0.0,1.0,86,0.00,,,0.00,0,WeatherCatV1.14B232,2013-08-08 08:22:00,
2013-08-08 01:27:00,60.5,55.6,29.96,WNW,302,0.0,3.0,84,0.00,,,0.00,0,WeatherCatV1.14B232,2013-08-08 08:27:00,
2013-08-08 01:32:00,60.7,55.8,29.96,WNW,302,0.0,0.0,84,0.00,,,0.00,0,WeatherCatV1.14B232,2013-08-08 08:32:00,
2013-08-08 01:37:00,60.9,55.7,29.96,NW,304,0.0,0.0,83,0.00,,,0.00,0,WeatherCatV1.14B232,2013-08-08 08:37:00,
2013-08-08 01:42:00,61.0,55.8,29.96,NW,304,0.0,0.0,83,0.00,,,0.00,0,WeatherCatV1.14B232,2013-08-08 08:42:00,
2013-08-08 01:47:00,61.2,55.7,29.96,NW,304,0.0,0.0,82,0.00,,,0.00,0,WeatherCatV1.14B232,2013-08-08 08:47:00,
2013-08-08 01:52:00,61.2,55.7,29.96,NW,304,0.0,2.0,82,0.00,,,0.00,0,WeatherCatV1.14B232,2013-08-08 08:52:00,
2013-08-08 01:57:00,61.3,55.8,29.96,NW,304,1.0,3.0,82,0.00,,,0.00,0,WeatherCatV1.14B232,2013-08-08 08:57:00,
2013-08-08 02:02:00,61.3,55.8,29.97,NW,310,3.0,3.0,82,0.00,,,0.00,0,WeatherCatV1.14B232,2013-08-08 09:02:00,
2013-08-08 02:07:00,61.5,55.9,29.97,NW,311,0.0,3.0,82,0.00,,,0.00,0,WeatherCatV1.14B232,2013-08-08 09:07:00,
2013-08-08 02:12:00,61.6,56.0,29.97,NW,313,0.0,2.0,82,0.00,,,0.00,0,WeatherCatV1.14B232,2013-08-08 09:12:00,
2013-08-08 02:17:00,61.8,55.9,29.96,NW,313,0.0,2.0,81,0.00,,,0.00,0,WeatherCatV1.14B232,2013-08-08 09:17:00,
2013-08-08 02:22:00,61.8,55.9,29.96,NW,313,0.0,1.0,81,0.00,,,0.00,0,WeatherCatV1.14B232,2013-08-08 09:22:00,
2013-08-08 02:27:00,61.8,55.9,29.96,NW,315,0.0,3.0,81,0.00,,,0.00,0,WeatherCatV1.14B232,2013-08-08 09:27:00,
2013-08-08 02:32:00,62.0,56.1,29.97,NW,315,0.0,0.0,81,0.00,,,0.00,0,WeatherCatV1.14B232,2013-08-08 09:32:00,
2013-08-08 02:37:00,62.0,56.1,29.97,NW,315,0.0,0.0,81,0.00,,,0.00,0,WeatherCatV1.14B232,2013-08-08 09:37:00,
2013-08-08 02:42:00,61.8,55.9,29.97,NW,315,0.0,0.0,81,0.00,,,0.00,0,WeatherCatV1.14B232,2013-08-08 09:42:00,
2013-08-08 02:47:00,61.8,55.9,29.97,NW,314,0.0,2.0,81,0.00,,,0.00,0,WeatherCatV1.14B232,2013-08-08 09:47:00,
2013-08-08 02:52:00,61.8,55.9,29.97,NW,314,0.0,2.0,81,0.00,,,0.00,0,WeatherCatV1.14B232,2013-08-08 09:52:00,
2013-08-08 02:57:00,61.6,56.0,29.97,NW,315,0.0,1.0,82,0.00,,,0.00,0,WeatherCatV1.14B232,2013-08-08 09:57:00,
2013-08-08 03:02:00,61.6,56.0,29.96,NW,316,0.0,3.0,82,0.00,,,0.00,0,WeatherCatV1.14B232,2013-08-08 10:02:00,
2013-08-08 03:07:00,61.6,56.0,29.96,NNW,328,4.0,6.0,82,0.00,,,0.00,0,WeatherCatV1.14B232,2013-08-08 10:07:00,
2013-08-08 03:12:00,61.8,56.2,29.96,NW,317,0.0,4.0,82,0.00,,,0.00,0,WeatherCatV1.14B232,2013-08-08 10:12:00,
2013-08-08 03:17:00,62.0,56.4,29.96,NW,310,0.0,4.0,82,0.00,,,0.00,0,WeatherCatV1.14B232,2013-08-08 10:17:00,
2013-08-08 03:22:00,62.1,56.2,29.96,NW,320,0.0,4.0,81,0.00,,,0.00,0,WeatherCatV1.14B232,2013-08-08 10:22:00,
2013-08-08 03:27:00,62.3,56.4,29.96,NW,316,0.0,3.0,81,0.00,,,0.00,0,WeatherCatV1.14B232,2013-08-08 10:27:00,
2013-08-08 03:32:00,62.4,56.5,29.96,NW,323,3.0,3.0,81,0.00,,,0.00,0,WeatherCatV1.14B232,2013-08-08 10:32:00,
2013-08-08 03:37:00,62.4,56.5,29.96,NW,323,0.0,0.0,81,0.00,,,0.00,0,WeatherCatV1.14B232,2013-08-08 10:37:00,
2013-08-08 03:42:00,62.4,56.1,29.96,NW,323,0.0,0.0,80,0.00,,,0.00,0,WeatherCatV1.14B232,2013-08-08 10:42:00,
2013-08-08 03:46:00,62.4,56.1,29.96,NW,323,0.0,0.0,80,0.00,,,0.00,0,WeatherCatV1.14B232,2013-08-08 10:46:00,
2013-08-08 03:51:00,62.4,56.1,29.96,NW,323,0.0,0.0,80,0.00,,,0.00,0,WeatherCatV1.14B232,2013-08-08 10:51:00,
2013-08-08 03:56:00,62.3,56.0,29.96,NW,323,0.0,0.0,80,0.00,,,0.00,0,WeatherCatV1.14B232,2013-08-08 10:56:00,
2013-08-08 04:01:00,62.3,56.0,29.96,NW,323,0.0,0.0,80,0.00,,,0.00,0,WeatherCatV1.14B232,2013-08-08 11:01:00,
2013-08-08 04:06:00,62.1,56.2,29.96,NW,323,0.0,0.0,81,0.00,,,0.00,0,WeatherCatV1.14B232,2013-08-08 11:06:00,
2013-08-08 04:11:00,61.8,55.9,29.96,NW,323,0.0,0.0,81,0.00,,,0.00,0,WeatherCatV1.14B232,2013-08-08 11:11:00,
2013-08-08 04:16:00,61.6,55.7,29.96,NW,323,0.0,0.0,81,0.00,,,0.00,0,WeatherCatV1.14B232,2013-08-08 11:16:00,
2013-08-08 04:21:00,61.5,55.6,29.96,NW,323,0.0,0.0,81,0.00,,,0.00,0,WeatherCatV1.14B232,2013-08-08 11:21:00,
2013-08-08 04:26:00,61.3,55.8,29.96,NW,323,0.0,0.0,82,0.00,,,0.00,0,WeatherCatV1.14B232,2013-08-08 11:26:00,
2013-08-08 04:31:00,61.0,55.5,29.96,NW,323,0.0,0.0,82,0.00,,,0.00,0,WeatherCatV1.14B232,2013-08-08 11:31:00,
2013-08-08 04:36:00,60.7,55.2,29.96,NW,323,0.0,0.0,82,0.00,,,0.00,0,WeatherCatV1.14B232,2013-08-08 11:36:00,
2013-08-08 04:41:00,60.5,55.3,29.96,NW,323,0.0,0.0,83,0.00,,,0.00,0,WeatherCatV1.14B232,2013-08-08 11:41:00,
2013-08-08 04:46:00,60.2,55.0,29.96,NW,323,0.0,0.0,83,0.00,,,0.00,0,WeatherCatV1.14B232,2013-08-08 11:46:00,
2013-08-08 04:51:00,59.9,55.0,29.96,NW,323,0.0,0.0,84,0.00,,,0.00,0,WeatherCatV1.14B232,2013-08-08 11:51:00,
2013-08-08 04:53:00,59.9,55.0,29.96,NW,323,0.0,0.0,84,0.00,,,0.00,0,WeatherCatV1.14B232,2013-08-08 11:53:00,
2013-08-08 04:58:00,59.6,54.8,29.96,NW,323,0.0,0.0,84,0.00,,,0.00,0,WeatherCatV1.14B232,2013-08-08 11:58:00,
2013-08-08 05:03:00,59.3,54.5,29.96,NW,323,0.0,0.0,84,0.00,,,0.00,0,WeatherCatV1.14B232,2013-08-08 12:03:00,
2013-08-08 05:08:00,59.2,54.4,29.96,NW,323,0.0,0.0,84,0.00,,,0.00,0,WeatherCatV1.14B232,2013-08-08 12:08:00,
2013-08-08 05:13:00,59.0,54.5,29.96,NW,323,0.0,0.0,85,0.00,,,0.00,0,WeatherCatV1.14B232,2013-08-08 12:13:00,
2013-08-08 05:18:00,58.7,54.2,29.96,NW,323,0.0,0.0,85,0.00,,,0.00,0,WeatherCatV1.14B232,2013-08-08 12:18:00,
2013-08-08 05:23:00,58.6,54.1,29.96,NW,323,0.0,0.0,85,0.00,,,0.00,0,WeatherCatV1.14B232,2013-08-08 12:23:00,
2013-08-08 05:28:00,58.3,53.8,29.96,NW,323,0.0,0.0,85,0.00,,,0.00,0,WeatherCatV1.14B232,2013-08-08 12:28:00,
2013-08-08 05:33:00,58.1,53.6,29.97,NW,323,0.0,0.0,85,0.00,,,0.00,0,WeatherCatV1.14B232,2013-08-08 12:33:00,
2013-08-08 05:38:00,57.8,53.6,29.97,NW,323,0.0,0.0,86,0.00,,,0.00,0,WeatherCatV1.14B232,2013-08-08 12:38:00,
2013-08-08 05:43:00,57.6,53.4,29.97,NW,323,0.0,0.0,86,0.00,,,0.00,0,WeatherCatV1.14B232,2013-08-08 12:43:00,
2013-08-08 05:48:00,57.3,53.1,29.97,NW,323,0.0,0.0,86,0.00,,,0.00,0,WeatherCatV1.14B232,2013-08-08 12:48:00,
2013-08-08 05:53:00,57.2,53.0,29.97,NW,323,0.0,0.0,86,0.00,,,0.00,5,WeatherCatV1.14B232,2013-08-08 12:53:00,
2013-08-08 05:58:00,57.0,53.2,29.97,NW,323,0.0,0.0,87,0.00,,,0.00,5,WeatherCatV1.14B232,2013-08-08 12:58:00,
2013-08-08 06:03:00,56.7,52.9,29.98,NW,323,0.0,0.0,87,0.00,,,0.00,9,WeatherCatV1.14B232,2013-08-08 13:03:00,
2013-08-08 06:08:00,56.6,52.8,29.98,NW,323,0.0,0.0,87,0.00,,,0.00,11,WeatherCatV1.14B232,2013-08-08 13:08:00,
2013-08-08 06:13:00,56.5,52.7,29.98,NW,323,0.0,0.0,87,0.00,,,0.00,12,WeatherCatV1.14B232,2013-08-08 13:13:00,
2013-08-08 06:18:00,56.3,52.5,29.98,NW,323,0.0,0.0,87,0.00,,,0.00,16,WeatherCatV1.14B232,2013-08-08 13:18:00,
2013-08-08 06:23:00,56.2,52.4,29.98,NW,323,0.0,0.0,87,0.00,,,0.00,19,WeatherCatV1.14B232,2013-08-08 13:23:00,
2013-08-08 06:28:00,55.9,52.1,29.98,NW,323,0.0,0.0,87,0.00,,,0.00,21,WeatherCatV1.14B232,2013-08-08 13:28:00,
2013-08-08 06:33:00,55.9,52.4,29.99,NW,323,0.0,0.0,88,0.00,,,0.00,28,WeatherCatV1.14B232,2013-08-08 13:33:00,
2013-08-08 06:38:00,55.7,52.2,29.99,NW,323,0.0,0.0,88,0.00,,,0.00,30,WeatherCatV1.14B232,2013-08-08 13:38:00,
2013-08-08 06:43:00,55.7,52.5,29.99,NW,323,0.0,0.0,89,0.00,,,0.00,30,WeatherCatV1.14B232,2013-08-08 13:43:00,
2013-08-08 06:48:00,55.6,52.7,29.99,NW,323,0.0,0.0,90,0.00,,,0.00,37,WeatherCatV1.14B232,2013-08-08 13:48:00,
2013-08-08 06:53:00,55.6,52.7,29.99,NW,323,0.0,0.0,90,0.00,,,0.00,47,WeatherCatV1.14B232,2013-08-08 13:53:00,
2013-08-08 06:58:00,55.6,52.7,29.99,NW,323,0.0,0.0,90,0.00,,,0.00,58,WeatherCatV1.14B232,2013-08-08 13:58:00,
2013-08-08 07:03:00,55.7,53.1,29.99,NW,323,0.0,0.0,91,0.00,,,0.00,60,WeatherCatV1.14B232,2013-08-08 14:03:00,
2013-08-08 07:08:00,55.7,53.4,29.99,NW,323,0.0,0.0,92,0.00,,,0.00,65,WeatherCatV1.14B232,2013-08-08 14:08:00,
2013-08-08 07:13:00,56.0,54.0,29.99,NW,323,0.0,0.0,93,0.00,,,0.00,58,WeatherCatV1.14B232,2013-08-08 14:13:00,
2013-08-08 07:18:00,56.3,54.3,29.99,NW,323,0.0,0.0,93,0.00,,,0.00,95,WeatherCatV1.14B232,2013-08-08 14:18:00,
2013-08-08 07:23:00,56.5,54.8,29.99,NW,323,0.0,0.0,94,0.00,,,0.00,77,WeatherCatV1.14B232,2013-08-08 14:23:00,
2013-08-08 07:28:00,56.7,55.0,29.99,NNW,337,0.0,0.0,94,0.00,,,0.00,77,WeatherCatV1.14B232,2013-08-08 14:28:00,
2013-08-08 07:33:00,56.9,55.2,29.99,NNW,337,0.0,0.0,94,0.00,,,0.00,95,WeatherCatV1.14B232,2013-08-08 14:33:00,
2013-08-08 07:38:00,57.2,55.5,29.99,NNW,337,0.0,0.0,94,0.00,,,0.00,109,WeatherCatV1.14B232,2013-08-08 14:38:00,
2013-08-08 07:43:00,57.3,55.9,29.99,NNW,337,0.0,0.0,95,0.00,,,0.00,116,WeatherCatV1.14B232,2013-08-08 14:43:00,
2013-08-08 07:49:00,57.6,56.2,29.99,NNW,337,0.0,0.0,95,0.00,,,0.00,113,WeatherCatV1.14B232,2013-08-08 14:49:00,
2013-08-08 07:54:00,57.8,56.4,29.99,NNW,337,0.0,0.0,95,0.00,,,0.00,120,WeatherCatV1.14B232,2013-08-08 14:54:00,
2013-08-08 07:59:00,58.1,56.7,29.99,NNW,337,0.0,0.0,95,0.00,,,0.00,118,WeatherCatV1.14B232,2013-08-08 14:59:00,
2013-08-08 08:04:00,58.1,56.7,29.99,NNW,337,0.0,0.0,95,0.00,,,0.00,123,WeatherCatV1.14B232,2013-08-08 15:04:00,
2013-08-08 08:09:00,58.3,56.9,29.99,North,349,0.0,0.0,95,0.00,,,0.00,97,WeatherCatV1.14B232,2013-08-08 15:09:00,
2013-08-08 08:14:00,58.3,56.6,29.99,North,349,0.0,0.0,94,0.00,,,0.00,142,WeatherCatV1.14B232,2013-08-08 15:14:00,
2013-08-08 08:19:00,58.4,56.7,29.99,North,349,0.0,0.0,94,0.00,,,0.00,185,WeatherCatV1.14B232,2013-08-08 15:19:00,
2013-08-08 08:24:00,58.6,56.9,29.99,North,349,0.0,1.0,94,0.00,,,0.00,176,WeatherCatV1.14B232,2013-08-08 15:24:00,
2013-08-08 08:29:00,58.7,57.0,29.99,North,349,0.0,0.0,94,0.00,,,0.00,214,WeatherCatV1.14B232,2013-08-08 15:29:00,
2013-08-08 08:34:00,59.0,57.6,29.99,North,349,0.0,1.0,95,0.00,,,0.00,257,WeatherCatV1.14B232,2013-08-08 15:34:00,
2013-08-08 08:39:00,59.3,57.6,29.99,North,349,0.0,0.0,94,0.00,,,0.00,278,WeatherCatV1.14B232,2013-08-08 15:39:00,
2013-08-08 08:44:00,59.6,57.9,29.99,North,349,0.0,0.0,94,0.00,,,0.00,338,WeatherCatV1.14B232,2013-08-08 15:44:00,
2013-08-08 08:49:00,60.1,58.4,29.98,North,349,0.0,0.0,94,0.00,,,0.00,353,WeatherCatV1.14B232,2013-08-08 15:49:00,
2013-08-08 08:54:00,60.7,58.7,29.98,North,349,0.0,0.0,93,0.00,,,0.00,371,WeatherCatV1.14B232,2013-08-08 15:54:00,
2013-08-08 08:59:00,61.3,58.6,29.98,ESE,103,1.0,2.0,91,0.00,,,0.00,408,WeatherCatV1.14B232,2013-08-08 15:59:00,
2013-08-08 09:04:00,62.0,58.4,29.98,ESE,103,0.0,0.0,88,0.00,,,0.00,439,WeatherCatV1.14B232,2013-08-08 16:04:00,
2013-08-08 09:09:00,62.4,58.5,29.98,ESE,103,0.0,0.0,87,0.00,,,0.00,457,WeatherCatV1.14B232,2013-08-08 16:09:00,
2013-08-08 09:14:00,63.5,58.9,29.98,ESE,103,0.0,1.0,85,0.00,,,0.00,468,WeatherCatV1.14B232,2013-08-08 16:14:00,
2013-08-08 09:19:00,64.3,58.3,29.98,East,98,0.0,2.0,81,0.00,,,0.00,478,WeatherCatV1.14B232,2013-08-08 16:19:00,
2013-08-08 09:24:00,64.8,58.5,29.98,East,98,0.0,1.0,80,0.00,,,0.00,490,WeatherCatV1.14B232,2013-08-08 16:24:00,
2013-08-08 09:29:00,66.0,58.9,29.98,East,98,0.0,1.0,78,0.00,,,0.00,503,WeatherCatV1.14B232,2013-08-08 16:29:00,
2013-08-08 09:34:00,67.3,59.5,29.98,WSW,245,0.0,0.0,76,0.00,,,0.00,517,WeatherCatV1.14B232,2013-08-08 16:34:00,
2013-08-08 09:39:00,68.6,60.0,29.98,ESE,107,0.0,1.0,74,0.00,,,0.00,531,WeatherCatV1.14B232,2013-08-08 16:39:00,
2013-08-08 09:44:00,69.4,59.6,29.98,East,82,0.0,3.0,71,0.00,,,0.00,540,WeatherCatV1.14B232,2013-08-08 16:44:00,
2013-08-08 09:49:00,69.9,59.7,29.97,East,84,1.0,1.0,70,0.00,,,0.00,545,WeatherCatV1.14B232,2013-08-08 16:49:00,
2013-08-08 09:54:00,71.3,60.6,29.97,South,177,1.0,1.0,69,0.00,,,0.00,534,WeatherCatV1.14B232,2013-08-08 16:54:00,
2013-08-08 09:59:00,72.1,60.1,29.97,South,186,0.0,3.0,66,0.00,,,0.00,570,WeatherCatV1.14B232,2013-08-08 16:59:00,
2013-08-08 10:04:00,72.8,60.3,29.97,WSW,250,0.0,1.0,65,0.00,,,0.00,575,WeatherCatV1.14B232,2013-08-08 17:04:00,
2013-08-08 10:09:00,73.3,60.4,29.97,SSW,209,0.0,0.0,64,0.00,,,0.00,578,WeatherCatV1.14B232,2013-08-08 17:09:00,
2013-08-08 10:14:00,74.0,60.6,29.97,SSW,209,0.0,0.0,63,0.00,,,0.00,548,WeatherCatV1.14B232,2013-08-08 17:14:00,
2013-08-08 10:19:00,74.7,61.2,29.97,South,184,0.0,0.0,63,0.00,,,0.00,598,WeatherCatV1.14B232,2013-08-08 17:19:00,
2013-08-08 10:24:00,75.4,61.0,29.97,SW,236,0.0,3.0,61,0.00,,,0.00,613,WeatherCatV1.14B232,2013-08-08 17:24:00,
2013-08-08 10:29:00,75.6,60.7,29.97,North,351,0.0,1.0,60,0.00,,,0.00,575,WeatherCatV1.14B232,2013-08-08 17:29:00,
2013-08-08 10:34:00,75.8,60.9,29.97,SW,215,0.0,4.0,60,0.00,,,0.00,629,WeatherCatV1.14B232,2013-08-08 17:34:00,
2013-08-08 10:39:00,76.1,60.7,29.97,WSW,249,0.0,3.0,59,0.00,,,0.00,652,WeatherCatV1.14B232,2013-08-08 17:39:00,
2013-08-08 10:44:00,76.5,60.6,29.97,SW,227,0.0,4.0,58,0.00,,,0.00,664,WeatherCatV1.14B232,2013-08-08 17:44:00,
2013-08-08 10:49:00,76.8,60.9,29.97,NNW,333,0.0,1.0,58,0.00,,,0.00,677,WeatherCatV1.14B232,2013-08-08 17:49:00,
2013-08-08 10:54:00,76.8,59.4,29.97,West,261,0.0,4.0,55,0.00,,,0.00,686,WeatherCatV1.14B232,2013-08-08 17:54:00,
2013-08-08 10:59:00,77.0,59.6,29.97,WNW,297,0.0,2.0,55,0.00,,,0.00,694,WeatherCatV1.14B232,2013-08-08 17:59:00,
2013-08-08 11:04:00,76.8,59.9,29.97,WSW,243,2.0,4.0,56,0.00,,,0.00,701,WeatherCatV1.14B232,2013-08-08 18:04:00,
2013-08-08 11:09:00,76.5,59.6,29.97,NW,317,0.0,2.0,56,0.00,,,0.00,710,WeatherCatV1.14B232,2013-08-08 18:09:00,
2013-08-08 11:14:00,76.1,60.7,29.96,NNW,345,0.0,4.0,59,0.00,,,0.00,715,WeatherCatV1.14B232,2013-08-08 18:14:00,
2013-08-08 11:19:00,76.1,59.7,29.96,WNW,296,0.0,2.0,57,0.00,,,0.00,708,WeatherCatV1.14B232,2013-08-08 18:19:00,
2013-08-08 11:24:00,76.1,59.7,29.96,NW,319,0.0,6.0,57,0.00,,,0.00,729,WeatherCatV1.14B232,2013-08-08 18:24:00,
2013-08-08 11:29:00,76.0,60.1,29.96,NNW,331,2.0,3.0,58,0.00,,,0.00,735,WeatherCatV1.14B232,2013-08-08 18:29:00,
2013-08-08 11:34:00,76.0,60.1,29.96,West,276,0.0,3.0,58,0.00,,,0.00,740,WeatherCatV1.14B232,2013-08-08 18:34:00,
2013-08-08 11:39:00,76.1,60.2,29.96,West,280,0.0,3.0,58,0.00,,,0.00,745,WeatherCatV1.14B232,2013-08-08 18:39:00,
2013-08-08 11:44:00,76.5,61.1,29.96,SW,217,0.0,4.0,59,0.00,,,0.00,752,WeatherCatV1.14B232,2013-08-08 18:44:00,
2013-08-08 11:49:00,77.2,61.3,29.96,SSW,197,4.0,4.0,58,0.00,,,0.00,756,WeatherCatV1.14B232,2013-08-08 18:49:00,
2013-08-08 11:54:00,77.2,60.8,29.96,SSW,197,0.0,4.0,57,0.00,,,0.00,722,WeatherCatV1.14B232,2013-08-08 18:54:00,
2013-08-08 11:59:00,77.6,62.1,29.95,SW,217,2.0,2.0,59,0.00,,,0.00,770,WeatherCatV1.14B232,2013-08-08 18:59:00,
2013-08-08 12:04:00,77.9,60.9,29.95,WSW,240,0.0,5.0,56,0.00,,,0.00,775,WeatherCatV1.14B232,2013-08-08 19:04:00,
2013-08-08 12:09:00,78.3,61.3,29.95,West,279,0.0,1.0,56,0.00,,,0.00,780,WeatherCatV1.14B232,2013-08-08 19:09:00,
2013-08-08 12:14:00,78.1,61.6,29.95,SSW,205,0.0,1.0,57,0.00,,,0.00,784,WeatherCatV1.14B232,2013-08-08 19:14:00,
2013-08-08 12:19:00,77.6,61.1,29.95,NNW,337,4.0,4.0,57,0.00,,,0.00,788,WeatherCatV1.14B232,2013-08-08 19:19:00,
2013-08-08 12:24:00,77.6,61.6,29.95,SW,225,1.0,4.0,58,0.00,,,0.00,784,WeatherCatV1.14B232,2013-08-08 19:24:00,
2013-08-08 12:29:00,77.7,61.7,29.95,WSW,252,0.0,1.0,58,0.00,,,0.00,795,WeatherCatV1.14B232,2013-08-08 19:29:00,
2013-08-08 12:34:00,78.6,61.1,29.95,SW,220,0.0,5.0,55,0.00,,,0.00,796,WeatherCatV1.14B232,2013-08-08 19:34:00,
2013-08-08 12:39:00,78.5,62.0,29.95,SSW,213,1.0,5.0,57,0.00,,,0.00,798,WeatherCatV1.14B232,2013-08-08 19:39:00,
2013-08-08 12:44:00,78.3,61.3,29.94,WSW,255,2.0,3.0,56,0.00,,,0.00,798,WeatherCatV1.14B232,2013-08-08 19:44:00,
2013-08-08 12:49:00,78.3,61.3,29.94,SW,216,2.0,4.0,56,0.00,,,0.00,802,WeatherCatV1.14B232,2013-08-08 19:49:00,
2013-08-08 12:54:00,78.1,61.1,29.94,SW,226,1.0,2.0,56,0.00,,,0.00,803,WeatherCatV1.14B232,2013-08-08 19:54:00,
2013-08-08 12:59:00,78.1,60.6,29.94,South,183,0.0,1.0,55,0.00,,,0.00,784,WeatherCatV1.14B232,2013-08-08 19:59:00,
2013-08-08 13:04:00,79.2,61.6,29.94,WNW,288,3.0,3.0,55,0.00,,,0.00,796,WeatherCatV1.14B232,2013-08-08 20:04:00,
2013-08-08 13:09:00,79.2,60.0,29.94,WNW,288,2.0,5.0,52,0.00,,,0.00,807,WeatherCatV1.14B232,2013-08-08 20:09:00,
2013-08-08 13:14:00,78.6,59.5,29.94,SSW,211,2.0,6.0,52,0.00,,,0.00,809,WeatherCatV1.14B232,2013-08-08 20:14:00,
2013-08-08 13:19:00,79.2,60.6,29.94,SE,145,0.0,1.0,53,0.00,,,0.00,807,WeatherCatV1.14B232,2013-08-08 20:19:00,
2013-08-08 13:24:00,79.2,60.0,29.94,East,87,0.0,1.0,52,0.00,,,0.00,809,WeatherCatV1.14B232,2013-08-08 20:24:00,
2013-08-08 13:29:00,79.4,60.2,29.94,SW,223,0.0,3.0,52,0.00,,,0.00,807,WeatherCatV1.14B232,2013-08-08 20:29:00,
2013-08-08 13:34:00,79.2,60.6,29.94,SW,233,0.0,4.0,53,0.00,,,0.00,802,WeatherCatV1.14B232,2013-08-08 20:34:00,
2013-08-08 13:39:00,79.2,60.0,29.94,West,279,0.0,3.0,52,0.00,,,0.00,802,WeatherCatV1.14B232,2013-08-08 20:39:00,
2013-08-08 13:44:00,79.6,60.4,29.94,West,278,0.0,2.0,52,0.00,,,0.00,800,WeatherCatV1.14B232,2013-08-08 20:44:00,
2013-08-08 13:49:00,79.6,59.3,29.94,SE,133,2.0,4.0,50,0.00,,,0.00,802,WeatherCatV1.14B232,2013-08-08 20:49:00,
2013-08-08 13:54:00,80.1,59.8,29.94,SW,235,0.0,6.0,50,0.00,,,0.00,798,WeatherCatV1.14B232,2013-08-08 20:54:00,
2013-08-08 13:59:00,80.7,60.9,29.93,WSW,241,0.0,3.0,51,0.00,,,0.00,796,WeatherCatV1.14B232,2013-08-08 20:59:00,
2013-08-08 14:04:00,81.4,60.4,29.93,NNW,336,1.0,4.0,49,0.00,,,0.00,791,WeatherCatV1.14B232,2013-08-08 21:04:00,
2013-08-08 14:09:00,81.8,60.7,29.93,WNW,289,4.0,4.0,49,0.00,,,0.00,788,WeatherCatV1.14B232,2013-08-08 21:09:00,
2013-08-08 14:14:00,81.6,58.8,29.94,West,261,2.0,2.0,46,0.00,,,0.00,786,WeatherCatV1.14B232,2013-08-08 21:14:00,
2013-08-08 14:19:00,81.4,59.2,29.94,SW,222,1.0,1.0,47,0.00,,,0.00,780,WeatherCatV1.14B232,2013-08-08 21:19:00,
2013-08-08 14:24:00,82.2,59.9,29.94,NW,304,0.0,3.0,47,0.00,,,0.00,779,WeatherCatV1.14B232,2013-08-08 21:24:00,
2013-08-08 14:29:00,82.4,59.5,29.93,SW,223,1.0,3.0,46,0.00,,,0.00,775,WeatherCatV1.14B232,2013-08-08 21:29:00,
2013-08-08 14:34:00,82.0,59.8,29.93,SW,235,1.0,5.0,47,0.00,,,0.00,766,WeatherCatV1.14B232,2013-08-08 21:34:00,
2013-08-08 14:39:00,81.4,59.2,29.93,North,5,1.0,4.0,47,0.00,,,0.00,759,WeatherCatV1.14B232,2013-08-08 21:39:00,
2013-08-08 14:44:00,80.9,58.8,29.93,North,350,0.0,5.0,47,0.00,,,0.00,752,WeatherCatV1.14B232,2013-08-08 21:44:00,
2013-08-08 14:49:00,80.9,59.3,29.93,NNW,333,1.0,7.0,48,0.00,,,0.00,747,WeatherCatV1.14B232,2013-08-08 21:49:00,
2013-08-08 14:54:00,80.9,58.2,29.93,South,190,1.0,5.0,46,0.00,,,0.00,742,WeatherCatV1.14B232,2013-08-08 21:54:00,
2013-08-08 14:59:00,81.2,59.6,29.93,West,273,0.0,4.0,48,0.00,,,0.00,719,WeatherCatV1.14B232,2013-08-08 21:59:00,
2013-08-08 15:04:00,81.6,59.4,29.93,WSW,243,0.0,2.0,47,0.00,,,0.00,717,WeatherCatV1.14B232,2013-08-08 22:04:00,
2013-08-08 15:09:00,81.8,59.6,29.93,NNW,328,3.0,4.0,47,0.00,,,0.00,708,WeatherCatV1.14B232,2013-08-08 22:09:00,
2013-08-08 15:14:00,81.4,58.6,29.93,West,277,1.0,5.0,46,0.00,,,0.00,708,WeatherCatV1.14B232,2013-08-08 22:14:00,
2013-08-08 15:19:00,81.8,59.6,29.93,NNW,340,0.0,4.0,47,0.00,,,0.00,698,WeatherCatV1.14B232,2013-08-08 22:19:00,
2013-08-08 15:24:00,81.8,60.2,29.93,WNW,297,1.0,2.0,48,0.00,,,0.00,693,WeatherCatV1.14B232,2013-08-08 22:24:00,
2013-08-08 15:29:00,82.4,59.5,29.93,SSW,200,1.0,5.0,46,0.00,,,0.00,680,WeatherCatV1.14B232,2013-08-08 22:29:00,
2013-08-08 15:34:00,82.2,58.7,29.93,NNW,340,1.0,5.0,45,0.00,,,0.00,659,WeatherCatV1.14B232,2013-08-08 22:34:00,
2013-08-08 15:39:00,81.8,59.0,29.93,SSW,211,0.0,5.0,46,0.00,,,0.00,657,WeatherCatV1.14B232,2013-08-08 22:39:00,
2013-08-08 15:44:00,82.2,58.7,29.93,WNW,292,0.0,1.0,45,0.00,,,0.00,643,WeatherCatV1.14B232,2013-08-08 22:44:00,
2013-08-08 15:49:00,82.4,59.5,29.93,West,273,0.0,3.0,46,0.00,,,0.00,633,WeatherCatV1.14B232,2013-08-08 22:49:00,
2013-08-08 15:54:00,82.6,59.1,29.93,SSW,212,1.0,4.0,45,0.00,,,0.00,635,WeatherCatV1.14B232,2013-08-08 22:54:00,
2013-08-08 15:59:00,82.0,59.1,29.93,NW,325,0.0,1.0,46,0.00,,,0.00,631,WeatherCatV1.14B232,2013-08-08 22:59:00,
2013-08-08 16:04:00,82.4,59.5,29.93,WNW,302,0.0,5.0,46,0.00,,,0.00,621,WeatherCatV1.14B232,2013-08-08 23:04:00,
2013-08-08 16:09:00,82.0,59.1,29.93,NW,309,1.0,5.0,46,0.00,,,0.00,612,WeatherCatV1.14B232,2013-08-08 23:09:00,
2013-08-08 16:14:00,81.8,58.4,29.93,SW,218,0.0,2.0,45,0.00,,,0.00,603,WeatherCatV1.14B232,2013-08-08 23:14:00,
2013-08-08 16:19:00,82.0,59.1,29.93,WNW,294,3.0,3.0,46,0.00,,,0.00,594,WeatherCatV1.14B232,2013-08-08 23:19:00,
2013-08-08 16:24:00,81.8,59.6,29.93,SW,222,3.0,5.0,47,0.00,,,0.00,584,WeatherCatV1.14B232,2013-08-08 23:24:00,
2013-08-08 16:29:00,81.8,59.6,29.92,WSW,240,2.0,3.0,47,0.00,,,0.00,533,WeatherCatV1.14B232,2013-08-08 23:29:00,
2013-08-08 16:34:00,82.0,60.3,29.92,West,278,2.0,2.0,48,0.00,,,0.00,513,WeatherCatV1.14B232,2013-08-08 23:34:00,
2013-08-08 16:39:00,81.8,59.6,29.92,WSW,254,0.0,1.0,47,0.00,,,0.00,504,WeatherCatV1.14B232,2013-08-08 23:39:00,
2013-08-08 16:44:00,81.6,59.4,29.92,SW,225,3.0,5.0,47,0.00,,,0.00,496,WeatherCatV1.14B232,2013-08-08 23:44:00,
2013-08-08 16:49:00,81.2,59.6,29.92,West,259,1.0,5.0,48,0.00,,,0.00,508,WeatherCatV1.14B232,2013-08-08 23:49:00,
2013-08-08 16:54:00,81.1,59.5,29.92,NW,315,1.0,5.0,48,0.00,,,0.00,473,WeatherCatV1.14B232,2013-08-08 23:54:00,
2013-08-08 16:59:00,80.5,59.6,29.92,North,355,0.0,3.0,49,0.00,,,0.00,438,WeatherCatV1.14B232,2013-08-08 23:59:00,
2013-08-08 17:04:00,80.3,59.9,29.92,NW,304,4.0,4.0,50,0.00,,,0.00,404,WeatherCatV1.14B232,2013-08-09 00:04:00,
2013-08-08 17:09:00,80.1,59.8,29.92,NNE,24,2.0,3.0,50,0.00,,,0.00,411,WeatherCatV1.14B232,2013-08-09 00:09:00,
2013-08-08 17:14:00,79.6,58.2,29.93,NNE,25,3.0,10.0,48,0.00,,,0.00,406,WeatherCatV1.14B232,2013-08-09 00:14:00,
2013-08-08 17:19:00,78.6,58.4,29.93,NW,319,1.0,1.0,50,0.00,,,0.00,360,WeatherCatV1.14B232,2013-08-09 00:19:00,
2013-08-08 17:24:00,77.9,57.7,29.93,NW,323,1.0,7.0,50,0.00,,,0.00,336,WeatherCatV1.14B232,2013-08-09 00:24:00,
2013-08-08 17:29:00,77.6,57.5,29.93,NNW,341,4.0,5.0,50,0.00,,,0.00,341,WeatherCatV1.14B232,2013-08-09 00:29:00,
2013-08-08 17:34:00,77.2,57.1,29.93,SSW,206,2.0,4.0,50,0.00,,,0.00,209,WeatherCatV1.14B232,2013-08-09 00:34:00,
2013-08-08 17:39:00,76.7,57.2,29.93,NNW,334,3.0,7.0,51,0.00,,,0.00,213,WeatherCatV1.14B232,2013-08-09 00:39:00,
2013-08-08 17:44:00,76.1,57.2,29.93,NNW,331,2.0,2.0,52,0.00,,,0.00,192,WeatherCatV1.14B232,2013-08-09 00:44:00,
2013-08-08 17:49:00,75.8,57.4,29.93,NNW,346,0.0,2.0,53,0.00,,,0.00,148,WeatherCatV1.14B232,2013-08-09 00:49:00,
2013-08-08 17:54:00,75.6,57.8,29.93,WSW,246,0.0,3.0,54,0.00,,,0.00,137,WeatherCatV1.14B232,2013-08-09 00:54:00,
2013-08-08 17:59:00,75.1,56.8,29.93,West,275,0.0,3.0,53,0.00,,,0.00,132,WeatherCatV1.14B232,2013-08-09 00:59:00,
2013-08-08 18:04:00,74.7,56.4,29.93,NW,304,0.0,2.0,53,0.00,,,0.00,128,WeatherCatV1.14B232,2013-08-09 01:04:00,
2013-08-08 18:09:00,74.2,55.4,29.93,WNW,295,0.0,2.0,52,0.00,,,0.00,127,WeatherCatV1.14B232,2013-08-09 01:09:00,
2013-08-08 18:14:00,73.9,55.1,29.92,NW,314,1.0,2.0,52,0.00,,,0.00,121,WeatherCatV1.14B232,2013-08-09 01:14:00,
2013-08-08 18:19:00,73.5,55.3,29.92,NW,314,1.0,1.0,53,0.00,,,0.00,120,WeatherCatV1.14B232,2013-08-09 01:19:00,
2013-08-08 18:24:00,73.2,55.5,29.92,NW,312,0.0,2.0,54,0.00,,,0.00,121,WeatherCatV1.14B232,2013-08-09 01:24:00,
2013-08-08 18:29:00,72.8,55.2,29.92,NW,309,0.0,2.0,54,0.00,,,0.00,109,WeatherCatV1.14B232,2013-08-09 01:29:00,
2013-08-08 18:34:00,72.7,54.6,29.92,NW,321,0.0,4.0,53,0.00,,,0.00,123,WeatherCatV1.14B232,2013-08-09 01:34:00,
2013-08-08 18:39:00,72.3,55.2,29.92,NW,321,0.0,1.0,55,0.00,,,0.00,135,WeatherCatV1.14B232,2013-08-09 01:39:00,
2013-08-08 18:44:00,72.1,55.0,29.92,WNW,289,0.0,0.0,55,0.00,,,0.00,139,WeatherCatV1.14B232,2013-08-09 01:44:00,
2013-08-08 18:49:00,72.1,55.0,29.92,WNW,289,0.0,0.0,55,0.00,,,0.00,120,WeatherCatV1.14B232,2013-08-09 01:49:00,
2013-08-08 18:54:00,72.1,55.5,29.92,WNW,289,0.0,0.0,56,0.00,,,0.00,95,WeatherCatV1.14B232,2013-08-09 01:54:00,
2013-08-08 18:55:00,72.1,55.5,29.92,WNW,289,0.0,0.0,56,0.00,,,0.00,88,WeatherCatV1.14B232,2013-08-09 01:55:00,
2013-08-08 19:00:00,72.0,54.9,29.92,WNW,289,0.0,1.0,55,0.00,,,0.00,69,WeatherCatV1.14B232,2013-08-09 02:00:00,
2013-08-08 19:05:00,71.8,55.2,29.92,WNW,298,0.0,3.0,56,0.00,,,0.00,69,WeatherCatV1.14B232,2013-08-09 02:05:00,
2013-08-08 19:10:00,71.5,55.0,29.92,WNW,301,1.0,2.0,56,0.00,,,0.00,72,WeatherCatV1.14B232,2013-08-09 02:10:00,
2013-08-08 19:15:00,70.9,54.4,29.91,NNW,329,0.0,2.0,56,0.00,,,0.00,56,WeatherCatV1.14B232,2013-08-09 02:15:00,
2013-08-08 19:20:00,70.6,54.6,29.91,NNW,329,0.0,3.0,57,0.00,,,0.00,47,WeatherCatV1.14B232,2013-08-09 02:20:00,
2013-08-08 19:25:00,70.3,54.8,29.91,NW,326,0.0,3.0,58,0.00,,,0.00,44,WeatherCatV1.14B232,2013-08-09 02:25:00,
2013-08-08 19:30:00,69.8,54.3,29.91,NW,325,1.0,4.0,58,0.00,,,0.00,42,WeatherCatV1.14B232,2013-08-09 02:30:00,
2013-08-08 19:35:00,69.4,54.0,29.91,NW,326,0.0,4.0,58,0.00,,,0.00,42,WeatherCatV1.14B232,2013-08-09 02:35:00,
2013-08-08 19:40:00,69.1,53.7,29.91,NW,326,0.0,0.0,58,0.00,,,0.00,42,WeatherCatV1.14B232,2013-08-09 02:40:00,
2013-08-08 19:45:00,68.9,53.5,29.91,NW,326,0.0,0.0,58,0.00,,,0.00,40,WeatherCatV1.14B232,2013-08-09 02:45:00,
2013-08-08 19:50:00,68.6,52.3,29.91,NW,321,0.0,1.0,56,0.00,,,0.00,37,WeatherCatV1.14B232,2013-08-09 02:50:00,
2013-08-08 19:55:00,68.1,51.3,29.91,NW,325,4.0,4.0,55,0.00,,,0.00,35,WeatherCatV1.14B232,2013-08-09 02:55:00,
2013-08-08 20:00:00,67.8,51.0,29.91,NW,323,0.0,3.0,55,0.00,,,0.00,32,WeatherCatV1.14B232,2013-08-09 03:00:00,
2013-08-08 20:05:00,67.3,50.6,29.91,NW,315,0.0,3.0,55,0.00,,,0.00,28,WeatherCatV1.14B232,2013-08-09 03:05:00,
2013-08-08 20:10:00,66.9,51.2,29.91,NNW,333,0.0,3.0,57,0.00,,,0.00,25,WeatherCatV1.14B232,2013-08-09 03:10:00,
2013-08-08 20:15:00,66.6,50.9,29.92,NNW,336,0.0,2.0,57,0.00,,,0.00,21,WeatherCatV1.14B232,2013-08-09 03:15:00,
2013-08-08 20:20:00,66.3,51.1,29.92,NW,319,1.0,2.0,58,0.00,,,0.00,14,WeatherCatV1.14B232,2013-08-09 03:20:00,
2013-08-08 20:25:00,66.0,51.3,29.92,NNW,339,0.0,1.0,59,0.00,,,0.00,11,WeatherCatV1.14B232,2013-08-09 03:25:00,
2013-08-08 20:30:00,65.6,50.9,29.92,NNW,340,2.0,4.0,59,0.00,,,0.00,9,WeatherCatV1.14B232,2013-08-09 03:30:00,
2013-08-08 20:35:00,65.3,51.1,29.92,NNW,340,0.0,1.0,60,0.00,,,0.00,7,WeatherCatV1.14B232,2013-08-09 03:35:00,
2013-08-08 20:40:00,65.2,51.4,29.92,NNW,340,0.0,2.0,61,0.00,,,0.00,5,WeatherCatV1.14B232,2013-08-09 03:40:00,
2013-08-08 20:45:00,64.8,51.5,29.93,NNW,340,1.0,1.0,62,0.00,,,0.00,0,WeatherCatV1.14B232,2013-08-09 03:45:00,
2013-08-08 20:50:00,64.5,51.6,29.93,NNW,340,0.0,0.0,63,0.00,,,0.00,0,WeatherCatV1.14B232,2013-08-09 03:50:00,
2013-08-08 20:55:00,64.2,51.8,29.93,NNW,327,0.0,3.0,64,0.00,,,0.00,0,WeatherCatV1.14B232,2013-08-09 03:55:00,
2013-08-08 21:00:00,63.9,51.9,29.93,NNW,327,0.0,1.0,65,0.00,,,0.00,0,WeatherCatV1.14B232,2013-08-09 04:00:00,
2013-08-08 21:01:00,63.9,51.9,29.93,NNW,327,0.0,1.0,65,0.00,,,0.00,0,WeatherCatV1.14B232,2013-08-09 04:01:00,
2013-08-08 21:04:00,63.7,52.1,29.93,NNW,327,0.0,0.0,66,0.00,,,0.00,0,WeatherCatV1.14B232,2013-08-09 04:04:00,
2013-08-08 21:09:00,63.4,51.8,29.93,NNW,327,0.0,0.0,66,0.00,,,0.00,0,WeatherCatV1.14B232,2013-08-09 04:09:00,
2013-08-08 21:14:00,63.1,52.4,29.93,NNW,327,0.0,0.0,68,0.00,,,0.00,0,WeatherCatV1.14B232,2013-08-09 04:14:00,
2013-08-08 21:19:00,62.7,52.4,29.93,NNW,327,0.0,0.0,69,0.00,,,0.00,0,WeatherCatV1.14B232,2013-08-09 04:19:00,
2013-08-08 21:24:00,62.3,52.4,29.93,NNW,327,0.0,1.0,70,0.00,,,0.00,0,WeatherCatV1.14B232,2013-08-09 04:24:00,
2013-08-08 21:29:00,61.8,52.3,29.92,NNW,327,0.0,1.0,71,0.00,,,0.00,0,WeatherCatV1.14B232,2013-08-09 04:29:00,
2013-08-08 21:34:00,61.6,52.5,29.92,NNW,327,0.0,0.0,72,0.00,,,0.00,0,WeatherCatV1.14B232,2013-08-09 04:34:00,
2013-08-08 21:39:00,61.3,52.6,29.92,NNW,327,0.0,0.0,73,0.00,,,0.00,0,WeatherCatV1.14B232,2013-08-09 04:39:00,
2013-08-08 21:44:00,61.0,52.6,29.92,NW,320,0.0,0.0,74,0.00,,,0.00,0,WeatherCatV1.14B232,2013-08-09 04:44:00,
2013-08-08 21:49:00,60.7,52.4,29.92,NW,320,0.0,0.0,74,0.00,,,0.00,0,WeatherCatV1.14B232,2013-08-09 04:49:00,
2013-08-08 21:54:00,60.5,52.5,29.92,NW,320,0.0,1.0,75,0.00,,,0.00,0,WeatherCatV1.14B232,2013-08-09 04:54:00,
2013-08-08 21:59:00,60.2,52.6,29.92,NNW,341,0.0,2.0,76,0.00,,,0.00,0,WeatherCatV1.14B232,2013-08-09 04:59:00,
2013-08-08 22:04:00,60.1,52.9,29.92,NW,325,0.0,2.0,77,0.00,,,0.00,0,WeatherCatV1.14B232,2013-08-09 05:04:00,
2013-08-08 22:09:00,59.8,52.9,29.92,NW,325,0.0,1.0,78,0.00,,,0.00,0,WeatherCatV1.14B232,2013-08-09 05:09:00,
2013-08-08 22:14:00,59.6,52.7,29.92,NW,325,0.0,1.0,78,0.00,,,0.00,0,WeatherCatV1.14B232,2013-08-09 05:14:00,
2013-08-08 22:19:00,59.5,53.0,29.92,NW,325,1.0,1.0,79,0.00,,,0.00,0,WeatherCatV1.14B232,2013-08-09 05:19:00,
2013-08-08 22:24:00,59.3,52.8,29.92,NW,325,0.0,0.0,79,0.00,,,0.00,0,WeatherCatV1.14B232,2013-08-09 05:24:00,
2013-08-08 22:29:00,59.3,52.8,29.92,NW,325,0.0,0.0,79,0.00,,,0.00,0,WeatherCatV1.14B232,2013-08-09 05:29:00,
2013-08-08 22:34:00,59.2,52.7,29.92,NW,325,0.0,0.0,79,0.00,,,0.00,0,WeatherCatV1.14B232,2013-08-09 05:34:00,
2013-08-08 22:39:00,59.2,53.0,29.92,NW,325,0.0,0.0,80,0.00,,,0.00,0,WeatherCatV1.14B232,2013-08-09 05:39:00,
2013-08-08 22:44:00,59.0,52.8,29.92,NW,325,0.0,0.0,80,0.00,,,0.00,0,WeatherCatV1.14B232,2013-08-09 05:44:00,
2013-08-08 22:49:00,58.9,52.7,29.92,NW,325,0.0,0.0,80,0.00,,,0.00,0,WeatherCatV1.14B232,2013-08-09 05:49:00,
2013-08-08 22:54:00,58.7,52.9,29.92,NW,325,0.0,0.0,81,0.00,,,0.00,0,WeatherCatV1.14B232,2013-08-09 05:54:00,
2013-08-08 22:59:00,58.6,52.8,29.92,NW,325,0.0,0.0,81,0.00,,,0.00,0,WeatherCatV1.14B232,2013-08-09 05:59:00,
2013-08-08 23:04:00,58.4,52.3,29.92,NW,325,0.0,0.0,80,0.00,,,0.00,0,WeatherCatV1.14B232,2013-08-09 06:04:00,
2013-08-08 23:09:00,58.3,52.2,29.92,NW,325,0.0,0.0,80,0.00,,,0.00,0,WeatherCatV1.14B232,2013-08-09 06:09:00,
2013-08-08 23:14:00,58.3,52.2,29.92,NW,325,0.0,0.0,80,0.00,,,0.00,0,WeatherCatV1.14B232,2013-08-09 06:14:00,
2013-08-08 23:19:00,58.3,52.2,29.92,NW,325,0.0,1.0,80,0.00,,,0.00,0,WeatherCatV1.14B232,2013-08-09 06:19:00,
2013-08-08 23:24:00,58.1,52.3,29.92,NW,325,1.0,1.0,81,0.00,,,0.00,0,WeatherCatV1.14B232,2013-08-09 06:24:00,
2013-08-08 23:29:00,58.1,52.3,29.92,NW,325,0.0,0.0,81,0.00,,,0.00,0,WeatherCatV1.14B232,2013-08-09 06:29:00,
2013-08-08 23:34:00,58.1,52.0,29.92,NW,325,0.0,1.0,80,0.00,,,0.00,0,WeatherCatV1.14B232,2013-08-09 06:34:00,
2013-08-08 23:39:00,58.1,52.0,29.92,NW,325,0.0,0.0,80,0.00,,,0.00,0,WeatherCatV1.14B232,2013-08-09 06:39:00,
2013-08-08 23:44:00,58.1,52.0,29.92,NW,325,0.0,0.0,80,0.00,,,0.00,0,WeatherCatV1.14B232,2013-08-09 06:44:00,
2013-08-08 23:49:00,58.1,52.0,29.92,NW,325,0.0,1.0,80,0.00,,,0.00,0,WeatherCatV1.14B232,2013-08-09 06:49:00,
2013-08-08 23:54:00,58.1,51.6,29.92,NW,325,0.0,1.0,79,0.00,,,0.00,0,WeatherCatV1.14B232,2013-08-09 06:54:00,
2013-08-08 23:59:00,58.1,51.3,29.92,NW,325,0.0,1.0,78,0.00,,,0.00,0,WeatherCatV1.14B232,2013-08-09 06:59:00,